createdAt,value
2023-03-23T00:00:15.481Z,26.27
2023-03-23T00:02:44.086Z,26.52
2023-03-23T00:05:11.181Z,24.70
2023-03-23T00:07:37.890Z,21.63
2023-03-23T00:10:04.975Z,28.73
2023-03-23T00:12:36.003Z,22.77
2023-03-23T00:15:09.247Z,27.48
2023-03-23T00:17:36.309Z,23.20
2023-03-23T00:20:06.451Z,21.73
2023-03-23T00:22:38.658Z,24.83
2023-03-23T00:25:06.641Z,28.40
2023-03-23T00:27:33.772Z,23.42
2023-03-23T00:30:01.100Z,26.90
2023-03-23T00:32:28.443Z,23.15
2023-03-23T00:35:01.669Z,23.63
2023-03-23T00:37:28.796Z,27.58
2023-03-23T00:39:58.375Z,28.60
2023-03-23T00:42:26.287Z,25.90
2023-03-23T00:45:01.245Z,24.10
2023-03-23T00:47:28.517Z,25.67
2023-03-23T00:49:57.346Z,30.13
2023-03-23T00:52:24.183Z,26.20
2023-03-23T00:54:51.023Z,26.63
2023-03-23T00:57:18.420Z,24.20
2023-03-23T00:59:45.114Z,28.10
2023-03-23T01:02:11.730Z,21.63
2023-03-23T01:04:41.272Z,22.80
2023-03-23T01:07:09.507Z,22.17
2023-03-23T01:09:37.531Z,22.92
2023-03-23T01:12:04.391Z,37.97
2023-03-23T01:14:31.344Z,27.23
2023-03-23T01:16:57.997Z,23.50
2023-03-23T01:19:24.711Z,22.08
2023-03-23T01:21:51.640Z,33.33
2023-03-23T01:24:18.238Z,32.42
2023-03-23T01:26:45.002Z,25.30
2023-03-23T01:29:12.169Z,23.23
2023-03-23T01:31:38.932Z,23.83
2023-03-23T01:34:05.644Z,26.60
2023-03-23T01:36:33.949Z,24.58
2023-03-23T01:39:03.614Z,23.00
2023-03-23T01:41:30.701Z,23.40
2023-03-23T01:44:08.222Z,26.83
2023-03-23T01:46:36.972Z,21.05
2023-03-23T01:49:10.804Z,24.77
2023-03-23T01:51:43.921Z,22.63
2023-03-23T01:54:15.123Z,24.08
2023-03-23T01:56:48.522Z,22.52
2023-03-23T01:59:16.615Z,21.98
2023-03-23T02:01:46.026Z,18.25
2023-03-23T02:04:15.918Z,22.33
2023-03-23T02:06:42.762Z,18.38
2023-03-23T02:09:10.603Z,23.45
2023-03-23T02:11:37.500Z,29.88
2023-03-23T02:14:04.201Z,25.60
2023-03-23T02:16:57.574Z,34.83
2023-03-23T02:19:42.097Z,28.88
2023-03-23T02:22:30.507Z,27.48
2023-03-23T02:25:25.263Z,29.05
2023-03-23T02:28:26.342Z,25.95
2023-03-23T02:31:12.430Z,35.08
2023-03-23T02:33:58.513Z,26.75
2023-03-23T02:36:44.712Z,25.67
2023-03-23T02:39:23.822Z,24.65
2023-03-23T02:41:59.174Z,29.38
2023-03-23T02:44:31.029Z,29.33
2023-03-23T02:46:58.861Z,32.00
2023-03-23T02:49:28.982Z,24.73
2023-03-23T02:51:59.812Z,21.02
2023-03-23T02:54:28.060Z,18.55
2023-03-23T02:56:55.997Z,18.10
2023-03-23T02:59:22.649Z,15.23
2023-03-23T03:02:05.139Z,15.93
2023-03-23T03:04:35.008Z,15.57
2023-03-23T03:07:31.412Z,16.77
2023-03-23T03:10:08.208Z,11.07
2023-03-23T03:13:20.263Z,11.13
2023-03-23T03:15:57.514Z,17.38
2023-03-23T03:18:33.930Z,11.55
2023-03-23T03:21:08.749Z,15.85
2023-03-23T03:23:38.505Z,13.75
2023-03-23T03:26:07.093Z,13.73
2023-03-23T03:28:34.523Z,12.10
2023-03-23T03:31:04.186Z,11.25
2023-03-23T03:33:32.570Z,9.60
2023-03-23T03:36:03.400Z,10.82
2023-03-23T03:38:30.226Z,14.20
2023-03-23T03:40:57.706Z,10.57
2023-03-23T03:43:24.702Z,11.75
2023-03-23T03:45:51.350Z,12.30
2023-03-23T03:48:18.117Z,14.57
2023-03-23T03:50:44.919Z,11.05
2023-03-23T03:53:11.951Z,11.15
2023-03-23T03:55:39.810Z,9.68
2023-03-23T03:58:08.406Z,14.02
2023-03-23T04:00:35.089Z,11.88
2023-03-23T04:03:02.775Z,14.27
2023-03-23T04:05:32.378Z,15.55
2023-03-23T04:08:09.735Z,12.73
2023-03-23T04:10:36.932Z,14.23
2023-03-23T04:13:05.667Z,12.45
2023-03-23T04:15:32.521Z,12.38
2023-03-23T04:17:59.946Z,11.57
2023-03-23T04:20:32.292Z,13.40
2023-03-23T04:22:59.060Z,10.20
2023-03-23T04:25:25.707Z,11.30
2023-03-23T04:27:55.760Z,11.23
2023-03-23T04:30:24.551Z,11.35
2023-03-23T04:32:53.144Z,10.38
2023-03-23T04:35:21.069Z,10.15
2023-03-23T04:37:47.812Z,10.02
2023-03-23T04:40:15.550Z,17.10
2023-03-23T04:42:46.821Z,10.38
2023-03-23T04:45:22.884Z,11.23
2023-03-23T04:47:54.317Z,9.77
2023-03-23T04:50:25.141Z,8.60
2023-03-23T04:52:52.615Z,9.68
2023-03-23T04:55:20.913Z,8.23
2023-03-23T04:57:48.593Z,9.05
2023-03-23T05:00:17.538Z,7.65
2023-03-23T05:02:46.196Z,13.77
2023-03-23T05:05:14.579Z,9.50
2023-03-23T05:07:42.272Z,11.95
2023-03-23T05:10:11.462Z,11.80
2023-03-23T05:12:38.245Z,12.13
2023-03-23T05:15:06.998Z,10.95
2023-03-23T05:17:34.771Z,9.15
2023-03-23T05:20:01.718Z,10.25
2023-03-23T05:22:29.189Z,8.40
2023-03-23T05:24:55.792Z,8.13
2023-03-23T05:27:22.411Z,8.75
2023-03-23T05:29:52.681Z,11.52
2023-03-23T05:32:20.344Z,8.23
2023-03-23T05:34:47.687Z,7.85
2023-03-23T05:37:14.842Z,9.43
2023-03-23T05:39:41.506Z,7.50
2023-03-23T05:42:08.897Z,8.57
2023-03-23T05:44:35.578Z,8.18
2023-03-23T05:47:02.214Z,8.32
2023-03-23T05:49:28.860Z,9.23
2023-03-23T05:51:55.494Z,11.32
2023-03-23T05:54:22.134Z,9.15
2023-03-23T05:56:50.128Z,11.55
2023-03-23T05:59:16.816Z,8.88
2023-03-23T06:01:43.509Z,12.48
2023-03-23T06:04:18.083Z,9.35
2023-03-23T06:06:44.854Z,7.25
2023-03-23T06:09:12.457Z,11.68
2023-03-23T06:11:39.337Z,8.27
2023-03-23T06:14:05.929Z,8.25
2023-03-23T06:16:32.716Z,10.23
2023-03-23T06:19:01.750Z,8.90
2023-03-23T06:21:29.153Z,9.70
2023-03-23T06:23:57.034Z,9.52
2023-03-23T06:26:29.723Z,9.13
2023-03-23T06:28:56.926Z,10.05
2023-03-23T06:31:23.543Z,10.13
2023-03-23T06:33:50.121Z,11.98
2023-03-23T06:36:17.826Z,7.38
2023-03-23T06:38:44.610Z,9.65
2023-03-23T06:41:12.496Z,9.30
2023-03-23T06:43:40.544Z,11.07
2023-03-23T06:46:07.815Z,8.48
2023-03-23T06:48:34.440Z,8.40
2023-03-23T06:51:01.151Z,14.35
2023-03-23T06:53:27.749Z,9.15
2023-03-23T06:55:54.400Z,9.63
2023-03-23T06:58:22.351Z,7.45
2023-03-23T07:00:48.958Z,9.35
2023-03-23T07:03:15.822Z,15.60
2023-03-23T07:05:42.826Z,8.60
2023-03-23T07:08:09.620Z,9.45
2023-03-23T07:10:36.292Z,10.70
2023-03-23T07:13:03.083Z,9.48
2023-03-23T07:15:29.698Z,7.00
2023-03-23T07:17:56.576Z,8.30
2023-03-23T07:20:23.560Z,6.57
2023-03-23T07:22:50.916Z,7.88
2023-03-23T07:25:18.608Z,8.60
2023-03-23T07:27:46.992Z,9.00
2023-03-23T07:30:15.929Z,10.30
2023-03-23T07:32:42.726Z,9.32
2023-03-23T07:35:10.964Z,10.25
2023-03-23T07:37:37.667Z,11.50
2023-03-23T07:40:15.795Z,8.57
2023-03-23T07:42:44.740Z,9.68
2023-03-23T07:45:13.392Z,7.57
2023-03-23T07:47:40.933Z,10.27
2023-03-23T07:50:09.691Z,9.27
2023-03-23T07:52:37.448Z,8.93
2023-03-23T07:55:06.281Z,10.30
2023-03-23T07:57:37.559Z,8.55
2023-03-23T08:00:10.636Z,8.70
2023-03-23T08:05:09.895Z,9.70
2023-03-23T08:07:37.103Z,9.02
2023-03-23T08:10:03.950Z,7.38
2023-03-23T08:12:30.595Z,9.85
2023-03-23T08:14:57.203Z,13.32
2023-03-23T08:17:23.812Z,9.07
2023-03-23T08:19:53.623Z,9.88
2023-03-23T08:22:20.819Z,10.13
2023-03-23T08:24:47.410Z,9.93
2023-03-23T08:27:14.099Z,12.57
2023-03-23T08:29:41.904Z,14.07
2023-03-23T08:32:08.524Z,10.93
2023-03-23T08:34:35.179Z,8.48
2023-03-23T08:37:01.889Z,8.30
2023-03-23T08:39:29.125Z,9.10
2023-03-23T08:41:55.839Z,11.50
2023-03-23T08:44:22.446Z,8.85
2023-03-23T08:46:49.103Z,7.85
2023-03-23T08:49:15.665Z,5.43
2023-03-23T08:51:43.199Z,6.03
2023-03-23T08:54:10.092Z,7.47
2023-03-23T08:56:36.668Z,7.85
2023-03-23T08:59:03.288Z,6.93
2023-03-23T09:01:29.897Z,5.57
2023-03-23T09:03:56.490Z,5.35
2023-03-23T09:06:23.454Z,6.32
2023-03-23T09:08:51.246Z,6.50
2023-03-23T09:11:17.904Z,7.57
2023-03-23T09:13:44.622Z,6.47
2023-03-23T09:16:11.346Z,5.15
2023-03-23T09:18:38.029Z,6.35
2023-03-23T09:21:04.858Z,6.43
2023-03-23T09:23:46.664Z,5.47
2023-03-23T09:26:13.280Z,8.52
2023-03-23T09:28:39.953Z,6.97
2023-03-23T09:31:06.805Z,7.05
2023-03-23T09:33:37.280Z,7.03
2023-03-23T09:36:15.957Z,5.72
2023-03-23T09:38:42.737Z,5.88
2023-03-23T09:41:38.524Z,5.85
2023-03-23T09:44:14.633Z,4.63
2023-03-23T09:46:52.079Z,5.80
2023-03-23T09:49:50.326Z,7.28
2023-03-23T09:52:19.163Z,4.18
2023-03-23T09:54:54.593Z,6.90
2023-03-23T09:57:36.226Z,4.95
2023-03-23T10:00:20.388Z,4.05
2023-03-23T10:03:12.021Z,6.13
2023-03-23T10:05:46.608Z,5.28
2023-03-23T10:08:15.978Z,5.30
2023-03-23T10:11:02.048Z,4.80
2023-03-23T10:14:06.028Z,4.07
2023-03-23T10:16:42.293Z,3.90
2023-03-23T10:19:14.393Z,3.50
2023-03-23T10:21:47.829Z,4.45
2023-03-23T10:24:18.001Z,4.07
2023-03-23T10:27:14.819Z,3.50
2023-03-23T10:29:49.470Z,5.97
2023-03-23T10:32:20.546Z,4.80
2023-03-23T10:34:47.729Z,5.50
2023-03-23T10:37:20.888Z,3.83
2023-03-23T10:39:56.419Z,4.85
2023-03-23T10:42:26.567Z,4.45
2023-03-23T10:44:54.288Z,4.25
2023-03-23T10:47:20.904Z,3.28
2023-03-23T10:49:54.823Z,4.45
2023-03-23T10:52:36.349Z,4.28
2023-03-23T10:56:28.412Z,3.55
2023-03-23T10:58:59.821Z,4.15
2023-03-23T11:01:37.837Z,4.15
2023-03-23T11:06:52.115Z,4.05
2023-03-23T11:09:23.636Z,5.10
2023-03-23T11:12:02.143Z,4.57
2023-03-23T11:14:35.579Z,3.17
2023-03-23T11:17:15.724Z,3.40
2023-03-23T11:19:46.147Z,3.92
2023-03-23T11:22:23.477Z,6.03
2023-03-23T11:24:57.177Z,5.38
2023-03-23T11:27:32.616Z,4.50
2023-03-23T11:30:11.828Z,4.30
2023-03-23T11:32:46.309Z,4.95
2023-03-23T11:35:23.231Z,5.10
2023-03-23T11:37:56.124Z,3.33
2023-03-23T11:40:28.593Z,4.28
2023-03-23T11:43:11.823Z,4.32
2023-03-23T11:45:43.785Z,3.90
2023-03-23T11:48:23.288Z,5.47
2023-03-23T11:50:56.026Z,4.32
2023-03-23T11:53:37.549Z,4.43
2023-03-23T11:56:17.711Z,6.00
2023-03-23T11:58:49.897Z,5.35
2023-03-23T12:01:28.801Z,4.90
2023-03-23T12:04:09.524Z,3.80
2023-03-23T12:06:47.314Z,8.90
2023-03-23T12:09:27.624Z,3.63
2023-03-23T12:12:13.759Z,5.07
2023-03-23T12:17:32.701Z,4.00
2023-03-23T12:20:23.854Z,5.20
2023-03-23T12:23:07.577Z,4.80
2023-03-23T12:25:59.761Z,4.47
2023-03-23T12:28:41.592Z,5.13
2023-03-23T12:31:22.912Z,6.03
2023-03-23T12:34:00.840Z,4.90
2023-03-23T12:36:42.754Z,4.32
2023-03-23T12:39:48.693Z,4.35
2023-03-23T12:42:27.400Z,4.78
2023-03-23T12:45:02.046Z,4.38
2023-03-23T12:47:45.443Z,5.30
2023-03-23T12:50:21.561Z,6.53
2023-03-23T12:52:59.646Z,6.47
2023-03-23T12:55:36.969Z,5.95
2023-03-23T12:58:09.689Z,4.80
2023-03-23T13:01:00.038Z,6.72
2023-03-23T13:03:39.076Z,6.75
2023-03-23T13:06:16.580Z,4.97
2023-03-23T13:08:53.914Z,5.00
2023-03-23T13:11:29.483Z,5.18
2023-03-23T13:14:05.772Z,6.53
2023-03-23T13:16:42.998Z,5.82
2023-03-23T13:19:20.628Z,5.88
2023-03-23T13:21:57.815Z,7.15
2023-03-23T13:24:31.193Z,4.93
2023-03-23T13:27:02.356Z,6.35
2023-03-23T13:29:33.654Z,6.53
2023-03-23T13:32:15.006Z,7.25
2023-03-23T13:34:50.798Z,6.82
2023-03-23T13:37:28.106Z,5.10
2023-03-23T13:40:00.112Z,6.15
2023-03-23T13:42:36.360Z,6.53
2023-03-23T13:45:23.422Z,7.22
2023-03-23T13:47:53.059Z,7.05
2023-03-23T13:50:34.024Z,7.88
2023-03-23T13:53:05.276Z,7.40
2023-03-23T13:55:45.298Z,7.72
2023-03-23T13:58:25.598Z,5.47
2023-03-23T14:01:13.888Z,5.78
2023-03-23T14:03:45.358Z,5.68
2023-03-23T14:06:21.515Z,6.80
2023-03-23T14:08:54.285Z,5.80
2023-03-23T14:11:27.628Z,7.03
2023-03-23T14:14:06.812Z,6.25
2023-03-23T14:16:41.361Z,6.45
2023-03-23T14:19:21.092Z,6.05
2023-03-23T14:21:57.898Z,6.25
2023-03-23T14:24:29.476Z,9.07
2023-03-23T14:27:11.978Z,6.25
2023-03-23T14:29:41.967Z,5.82
2023-03-23T14:32:18.140Z,5.25
2023-03-23T14:34:51.260Z,5.22
2023-03-23T14:37:24.950Z,4.68
2023-03-23T14:39:58.160Z,6.93
2023-03-23T14:42:33.138Z,4.80
2023-03-23T14:45:05.005Z,5.70
2023-03-23T14:47:37.470Z,4.68
2023-03-23T14:50:10.835Z,5.75
2023-03-23T14:52:43.041Z,7.97
2023-03-23T14:55:16.082Z,5.72
2023-03-23T14:57:46.344Z,5.68
2023-03-23T15:00:24.954Z,6.30
2023-03-23T15:02:57.472Z,5.28
2023-03-23T15:05:34.418Z,6.82
2023-03-23T15:08:12.703Z,6.97
2023-03-23T15:10:43.665Z,5.43
2023-03-23T15:13:16.545Z,6.15
2023-03-23T15:15:46.253Z,5.75
2023-03-23T15:18:33.038Z,6.28
2023-03-23T15:21:13.129Z,6.88
2023-03-23T15:23:48.491Z,6.55
2023-03-23T15:26:34.423Z,5.93
2023-03-23T15:29:15.613Z,5.40
2023-03-23T15:31:58.414Z,7.07
2023-03-23T15:34:40.157Z,5.82
2023-03-23T15:37:21.190Z,6.85
2023-03-23T15:39:55.179Z,7.55
2023-03-23T15:42:31.180Z,7.03
2023-03-23T15:45:07.039Z,8.25
2023-03-23T15:50:16.583Z,7.38
2023-03-23T15:52:47.253Z,6.32
2023-03-23T15:55:27.927Z,5.82
2023-03-23T15:57:59.314Z,8.35
2023-03-23T16:00:31.415Z,7.32
2023-03-23T16:03:04.154Z,8.07
2023-03-23T16:05:33.805Z,7.43
2023-03-23T16:08:04.418Z,8.73
2023-03-23T16:10:36.612Z,8.88
2023-03-23T16:13:07.252Z,6.70
2023-03-23T16:15:37.139Z,6.03
2023-03-23T16:18:07.066Z,5.88
2023-03-23T16:20:36.934Z,6.45
2023-03-23T16:23:06.561Z,6.88
2023-03-23T16:25:39.008Z,6.20
2023-03-23T16:28:08.569Z,7.57
2023-03-23T16:30:38.511Z,7.35
2023-03-23T16:33:08.307Z,8.00
2023-03-23T16:35:38.426Z,8.05
2023-03-23T16:38:09.219Z,6.32
2023-03-23T16:40:42.364Z,8.27
2023-03-23T16:43:12.688Z,6.72
2023-03-23T16:45:44.412Z,6.10
2023-03-23T16:48:16.406Z,6.70
2023-03-23T16:50:47.401Z,6.15
2023-03-23T16:53:17.106Z,6.32
2023-03-23T16:55:49.290Z,6.10
2023-03-23T16:58:19.684Z,7.10
2023-03-23T17:00:52.199Z,6.93
2023-03-23T17:03:23.015Z,9.40
2023-03-23T17:05:54.465Z,8.70
2023-03-23T17:08:24.529Z,11.35
2023-03-23T17:10:56.788Z,7.72
2023-03-23T17:13:28.066Z,6.90
2023-03-23T17:15:58.850Z,7.95
2023-03-23T17:18:29.287Z,10.50
2023-03-23T17:20:59.192Z,9.30
2023-03-23T17:23:28.835Z,8.50
2023-03-23T17:26:01.574Z,7.25
2023-03-23T17:28:31.249Z,8.60
2023-03-23T17:31:00.949Z,8.52
2023-03-23T17:33:30.561Z,6.97
2023-03-23T17:36:00.156Z,10.63
2023-03-23T17:38:29.881Z,11.35
2023-03-23T17:41:04.396Z,12.23
2023-03-23T17:43:35.321Z,11.80
2023-03-23T17:46:04.960Z,10.88
2023-03-23T17:48:34.546Z,11.82
2023-03-23T17:51:04.230Z,8.57
2023-03-23T17:53:35.885Z,9.32
2023-03-23T17:56:09.641Z,8.13
2023-03-23T17:58:39.538Z,8.63
2023-03-23T18:01:09.659Z,6.88
2023-03-23T18:03:40.037Z,7.88
2023-03-23T18:06:11.362Z,9.02
2023-03-23T18:08:41.640Z,9.73
2023-03-23T18:11:14.037Z,6.18
2023-03-23T18:13:43.651Z,9.93
2023-03-23T18:16:13.572Z,8.20
2023-03-23T18:18:43.214Z,8.25
2023-03-23T18:21:13.288Z,6.20
2023-03-23T18:23:52.972Z,8.75
2023-03-23T18:26:31.884Z,9.50
2023-03-23T18:29:01.495Z,7.25
2023-03-23T18:31:31.449Z,7.80
2023-03-23T18:34:01.217Z,8.30
2023-03-23T18:36:31.183Z,9.32
2023-03-23T18:39:01.143Z,7.10
2023-03-23T18:41:33.324Z,9.80
2023-03-23T18:44:02.904Z,8.75
2023-03-23T18:46:32.470Z,8.23
2023-03-23T18:49:02.155Z,7.15
2023-03-23T18:51:31.771Z,8.85
2023-03-23T18:54:01.354Z,9.60
2023-03-23T18:56:33.555Z,7.53
2023-03-23T18:59:03.147Z,7.97
2023-03-23T19:01:32.799Z,11.20
2023-03-23T19:04:06.418Z,9.65
2023-03-23T19:06:37.381Z,13.18
2023-03-23T19:09:07.379Z,12.13
2023-03-23T19:11:39.534Z,11.50
2023-03-23T19:14:09.160Z,11.38
2023-03-23T19:16:38.823Z,14.82
2023-03-23T19:19:10.433Z,14.30
2023-03-23T19:21:43.822Z,15.48
2023-03-23T19:24:16.404Z,10.88
2023-03-23T19:26:49.815Z,9.25
2023-03-23T19:29:26.645Z,10.32
2023-03-23T19:31:57.356Z,13.82
2023-03-23T19:34:28.329Z,12.70
2023-03-23T19:37:05.482Z,11.65
2023-03-23T19:39:36.445Z,9.80
2023-03-23T19:42:09.584Z,12.27
2023-03-23T19:44:39.574Z,10.13
2023-03-23T19:47:09.407Z,10.02
2023-03-23T19:49:39.404Z,11.38
2023-03-23T19:52:12.737Z,12.10
2023-03-23T19:54:43.671Z,10.10
2023-03-23T19:57:16.382Z,9.95
2023-03-23T19:59:47.257Z,8.98
2023-03-23T20:02:17.342Z,13.35
2023-03-23T20:04:47.036Z,10.65
2023-03-23T20:07:16.677Z,10.43
2023-03-23T20:09:46.497Z,9.40
2023-03-23T20:12:21.225Z,9.55
2023-03-23T20:14:50.946Z,11.85
2023-03-23T20:17:20.599Z,8.90
2023-03-23T20:19:50.158Z,9.43
2023-03-23T20:22:19.831Z,10.95
2023-03-23T20:24:49.717Z,12.23
2023-03-23T20:27:21.978Z,10.68
2023-03-23T20:29:52.459Z,9.20
2023-03-23T20:32:22.197Z,11.75
2023-03-23T20:34:51.952Z,10.75
2023-03-23T20:37:24.165Z,9.38
2023-03-23T20:39:53.745Z,15.43
2023-03-23T20:42:26.146Z,11.45
2023-03-23T20:44:56.158Z,10.20
2023-03-23T20:47:25.829Z,7.75
2023-03-23T20:49:55.467Z,9.68
2023-03-23T20:52:26.128Z,10.55
2023-03-23T20:54:56.308Z,11.52
2023-03-23T20:57:28.980Z,12.20
2023-03-23T20:59:58.899Z,8.70
2023-03-23T21:02:30.119Z,12.35
2023-03-23T21:05:04.437Z,10.27
2023-03-23T21:10:09.363Z,10.63
2023-03-23T21:12:41.700Z,13.55
2023-03-23T21:15:11.624Z,10.38
2023-03-23T21:17:41.265Z,10.73
2023-03-23T21:20:12.560Z,8.63
2023-03-23T21:22:42.186Z,10.65
2023-03-23T21:25:12.830Z,10.45
2023-03-23T21:27:45.124Z,11.23
2023-03-23T21:30:14.964Z,11.23
2023-03-23T21:32:44.651Z,11.68
2023-03-23T21:35:14.649Z,13.05
2023-03-23T21:37:44.193Z,11.45
2023-03-23T21:40:17.873Z,10.95
2023-03-23T21:42:51.910Z,11.07
2023-03-23T21:45:21.561Z,12.95
2023-03-23T21:47:57.975Z,14.10
2023-03-23T21:50:27.992Z,14.98
2023-03-23T21:52:57.578Z,12.77
2023-03-23T21:55:29.853Z,13.32
2023-03-23T21:58:03.027Z,12.77
2023-03-23T22:00:32.722Z,12.82
2023-03-23T22:03:02.917Z,18.70
2023-03-23T22:05:32.601Z,10.98
2023-03-23T22:08:02.220Z,12.43
2023-03-23T22:10:31.752Z,16.42
2023-03-23T22:13:03.923Z,11.32
2023-03-23T22:15:33.501Z,13.65
2023-03-23T22:18:03.213Z,15.82
2023-03-23T22:20:33.660Z,12.88
2023-03-23T22:23:03.183Z,10.68
2023-03-23T22:25:36.353Z,12.35
2023-03-23T22:28:09.173Z,11.90
2023-03-23T22:30:38.955Z,12.27
2023-03-23T22:33:08.570Z,11.85
2023-03-23T22:35:38.344Z,15.55
2023-03-23T22:38:07.925Z,13.35
2023-03-23T22:40:38.012Z,14.63
2023-03-23T22:43:10.231Z,12.10
2023-03-23T22:45:39.792Z,14.85
2023-03-23T22:48:09.422Z,14.00
2023-03-23T22:50:39.019Z,13.93
2023-03-23T22:53:08.792Z,11.88
2023-03-23T22:55:38.366Z,18.33
2023-03-23T22:58:11.937Z,12.45
2023-03-23T23:00:42.614Z,14.10
2023-03-23T23:03:12.295Z,14.50
2023-03-23T23:05:44.918Z,13.52
2023-03-23T23:08:17.736Z,14.73
2023-03-23T23:10:49.214Z,14.27
2023-03-23T23:13:22.019Z,10.45
2023-03-23T23:15:54.087Z,11.80
2023-03-23T23:18:24.257Z,12.10
2023-03-23T23:20:55.973Z,14.60
2023-03-23T23:23:26.573Z,8.38
2023-03-23T23:25:57.467Z,11.18
2023-03-23T23:28:30.124Z,11.65
2023-03-23T23:30:59.867Z,10.07
2023-03-23T23:33:29.816Z,14.23
2023-03-23T23:35:59.714Z,9.68
2023-03-23T23:38:29.274Z,9.38
2023-03-23T23:40:58.844Z,10.18
2023-03-23T23:43:31.280Z,8.40
2023-03-23T23:46:00.989Z,11.18
2023-03-23T23:48:30.542Z,7.95
2023-03-23T23:51:00.131Z,8.75
2023-03-23T23:53:31.503Z,8.90
2023-03-23T23:56:04.373Z,10.95
2023-03-23T23:58:36.562Z,8.38
